Terminal Aerodrome Forecast
Issued by NWS

Current Version | Previous Version | Graphics & Text | Print | Product List | Glossary On
Versions: 1 2 3 4 5 6 7 8 9 10 11 12 13 14 15 16 17 18 19 20 21
000
FTUS41 KPBZ 181700 RRA
TAFHLG
TAF
KHLG 181741Z 1818/1918 28012G20KT P6SM VCSH SCT025 BKN035
     FM190300 32009KT P6SM BKN025
     FM191600 27008KT P6SM BKN040=

USA.gov is the U.S. government's official web portal to all federal, state and local government web resources and services.